sensor_id;sensor_type;location;lat;lon;timestamp;P1;durP1;ratioP1;P2;durP2;ratioP2
14001;SDS011;7076;51.280;12.584;2022-08-30T00:01:51;3.03;;;2.00;;
14001;SDS011;7076;51.280;12.584;2022-08-30T00:06:55;1.95;;;1.75;;
14001;SDS011;7076;51.280;12.584;2022-08-30T00:11:58;1.92;;;1.70;;
14001;SDS011;7076;51.280;12.584;2022-08-30T00:17:00;3.40;;;1.67;;
14001;SDS011;7076;51.280;12.584;2022-08-30T00:22:05;2.80;;;2.20;;
14001;SDS011;7076;51.280;12.584;2022-08-30T00:27:10;3.10;;;1.58;;
14001;SDS011;7076;51.280;12.584;2022-08-30T00:32:13;3.00;;;1.90;;
14001;SDS011;7076;51.280;12.584;2022-08-30T00:37:18;2.67;;;1.55;;
14001;SDS011;7076;51.280;12.584;2022-08-30T00:42:21;4.05;;;1.67;;
14001;SDS011;7076;51.280;12.584;2022-08-30T00:47:24;4.07;;;2.10;;
14001;SDS011;7076;51.280;12.584;2022-08-30T00:52:29;2.03;;;1.85;;
14001;SDS011;7076;51.280;12.584;2022-08-30T00:57:32;4.15;;;1.83;;
14001;SDS011;7076;51.280;12.584;2022-08-30T01:02:36;2.42;;;1.88;;
14001;SDS011;7076;51.280;12.584;2022-08-30T01:07:40;2.42;;;1.95;;
14001;SDS011;7076;51.280;12.584;2022-08-30T01:12:43;4.68;;;1.92;;
14001;SDS011;7076;51.280;12.584;2022-08-30T01:17:46;4.68;;;1.67;;
14001;SDS011;7076;51.280;12.584;2022-08-30T01:23:09;5.22;;;1.90;;
14001;SDS011;7076;51.280;12.584;2022-08-30T01:28:14;2.33;;;1.90;;
14001;SDS011;7076;51.280;12.584;2022-08-30T01:33:21;6.38;;;2.05;;
14001;SDS011;7076;51.280;12.584;2022-08-30T01:38:27;6.03;;;2.10;;
14001;SDS011;7076;51.280;12.584;2022-08-30T01:43:31;5.03;;;1.88;;
14001;SDS011;7076;51.280;12.584;2022-08-30T01:48:34;2.38;;;1.83;;
14001;SDS011;7076;51.280;12.584;2022-08-30T01:53:38;2.58;;;1.90;;
14001;SDS011;7076;51.280;12.584;2022-08-30T01:58:42;3.17;;;1.77;;
14001;SDS011;7076;51.280;12.584;2022-08-30T02:03:45;2.90;;;2.03;;
14001;SDS011;7076;51.280;12.584;2022-08-30T02:08:50;2.47;;;1.98;;
14001;SDS011;7076;51.280;12.584;2022-08-30T02:13:53;3.30;;;2.08;;
14001;SDS011;7076;51.280;12.584;2022-08-30T02:18:56;3.13;;;1.88;;
14001;SDS011;7076;51.280;12.584;2022-08-30T02:24:00;2.85;;;1.60;;
14001;SDS011;7076;51.280;12.584;2022-08-30T02:29:03;2.22;;;2.03;;
14001;SDS011;7076;51.280;12.584;2022-08-30T02:34:07;1.85;;;1.38;;
14001;SDS011;7076;51.280;12.584;2022-08-30T02:39:12;2.88;;;1.60;;
14001;SDS011;7076;51.280;12.584;2022-08-30T02:44:15;2.83;;;2.20;;
14001;SDS011;7076;51.280;12.584;2022-08-30T02:49:18;3.33;;;1.80;;
14001;SDS011;7076;51.280;12.584;2022-08-30T02:54:35;8.43;;;2.03;;
14001;SDS011;7076;51.280;12.584;2022-08-30T02:59:38;2.65;;;1.80;;
14001;SDS011;7076;51.280;12.584;2022-08-30T03:04:44;3.25;;;2.03;;
14001;SDS011;7076;51.280;12.584;2022-08-30T03:09:48;2.90;;;1.80;;
14001;SDS011;7076;51.280;12.584;2022-08-30T03:14:51;2.38;;;2.13;;
14001;SDS011;7076;51.280;12.584;2022-08-30T03:19:54;3.10;;;2.13;;
14001;SDS011;7076;51.280;12.584;2022-08-30T03:24:58;2.08;;;1.83;;
14001;SDS011;7076;51.280;12.584;2022-08-30T03:30:02;3.08;;;2.17;;
14001;SDS011;7076;51.280;12.584;2022-08-30T03:35:06;3.60;;;1.90;;
14001;SDS011;7076;51.280;12.584;2022-08-30T03:40:12;3.63;;;1.92;;
14001;SDS011;7076;51.280;12.584;2022-08-30T03:45:19;4.13;;;2.10;;
14001;SDS011;7076;51.280;12.584;2022-08-30T03:50:21;3.97;;;2.25;;
14001;SDS011;7076;51.280;12.584;2022-08-30T03:55:26;5.53;;;2.45;;
14001;SDS011;7076;51.280;12.584;2022-08-30T04:00:30;4.45;;;2.10;;
14001;SDS011;7076;51.280;12.584;2022-08-30T04:05:33;2.42;;;2.22;;
14001;SDS011;7076;51.280;12.584;2022-08-30T04:10:38;3.90;;;1.95;;
14001;SDS011;7076;51.280;12.584;2022-08-30T04:15:41;2.10;;;1.85;;
14001;SDS011;7076;51.280;12.584;2022-08-30T04:20:44;3.92;;;1.63;;
14001;SDS011;7076;51.280;12.584;2022-08-30T04:25:49;2.33;;;1.77;;
14001;SDS011;7076;51.280;12.584;2022-08-30T04:30:51;2.25;;;1.95;;
14001;SDS011;7076;51.280;12.584;2022-08-30T04:35:54;3.25;;;2.10;;
14001;SDS011;7076;51.280;12.584;2022-08-30T04:41:08;1.90;;;1.67;;
14001;SDS011;7076;51.280;12.584;2022-08-30T04:46:13;4.32;;;2.08;;
14001;SDS011;7076;51.280;12.584;2022-08-30T04:51:16;3.80;;;3.03;;
14001;SDS011;7076;51.280;12.584;2022-08-30T04:56:21;2.42;;;2.00;;
14001;SDS011;7076;51.280;12.584;2022-08-30T05:01:26;2.22;;;2.03;;
14001;SDS011;7076;51.280;12.584;2022-08-30T05:06:30;3.08;;;2.28;;
14001;SDS011;7076;51.280;12.584;2022-08-30T05:11:34;2.45;;;2.08;;
14001;SDS011;7076;51.280;12.584;2022-08-30T05:16:38;3.15;;;2.15;;
14001;SDS011;7076;51.280;12.584;2022-08-30T05:21:42;4.13;;;2.40;;
14001;SDS011;7076;51.280;12.584;2022-08-30T05:26:46;3.20;;;2.53;;
14001;SDS011;7076;51.280;12.584;2022-08-30T05:31:54;3.67;;;2.70;;
14001;SDS011;7076;51.280;12.584;2022-08-30T05:36:56;2.88;;;2.58;;
14001;SDS011;7076;51.280;12.584;2022-08-30T05:42:01;3.58;;;2.85;;
14001;SDS011;7076;51.280;12.584;2022-08-30T05:47:04;7.03;;;2.65;;
14001;SDS011;7076;51.280;12.584;2022-08-30T05:52:07;5.90;;;2.90;;
14001;SDS011;7076;51.280;12.584;2022-08-30T05:57:11;2.95;;;2.65;;
14001;SDS011;7076;51.280;12.584;2022-08-30T06:02:14;4.57;;;3.95;;
14001;SDS011;7076;51.280;12.584;2022-08-30T06:07:17;3.60;;;2.65;;
14001;SDS011;7076;51.280;12.584;2022-08-30T06:12:24;5.05;;;2.97;;
14001;SDS011;7076;51.280;12.584;2022-08-30T06:17:27;7.70;;;6.53;;
14001;SDS011;7076;51.280;12.584;2022-08-30T06:22:30;3.08;;;2.60;;
14001;SDS011;7076;51.280;12.584;2022-08-30T06:27:34;3.67;;;2.67;;
14001;SDS011;7076;51.280;12.584;2022-08-30T06:32:37;5.93;;;3.15;;
14001;SDS011;7076;51.280;12.584;2022-08-30T06:37:40;4.55;;;3.30;;
14001;SDS011;7076;51.280;12.584;2022-08-30T06:42:45;5.50;;;3.30;;
14001;SDS011;7076;51.280;12.584;2022-08-30T06:47:47;4.95;;;3.00;;
14001;SDS011;7076;51.280;12.584;2022-08-30T06:52:50;5.43;;;2.83;;
14001;SDS011;7076;51.280;12.584;2022-08-30T06:57:55;5.18;;;2.92;;
14001;SDS011;7076;51.280;12.584;2022-08-30T07:02:57;5.32;;;4.68;;
14001;SDS011;7076;51.280;12.584;2022-08-30T07:08:02;4.82;;;2.90;;
14001;SDS011;7076;51.280;12.584;2022-08-30T07:13:06;5.22;;;3.20;;
14001;SDS011;7076;51.280;12.584;2022-08-30T07:18:10;4.32;;;2.85;;
14001;SDS011;7076;51.280;12.584;2022-08-30T07:23:31;4.97;;;3.28;;
14001;SDS011;7076;51.280;12.584;2022-08-30T07:28:36;6.47;;;3.50;;
14001;SDS011;7076;51.280;12.584;2022-08-30T07:33:40;6.10;;;3.15;;
14001;SDS011;7076;51.280;12.584;2022-08-30T07:38:43;6.28;;;3.88;;
14001;SDS011;7076;51.280;12.584;2022-08-30T07:43:48;6.65;;;3.47;;
14001;SDS011;7076;51.280;12.584;2022-08-30T07:48:51;5.10;;;3.22;;
14001;SDS011;7076;51.280;12.584;2022-08-30T07:53:55;5.07;;;3.40;;
14001;SDS011;7076;51.280;12.584;2022-08-30T07:59:00;5.45;;;3.35;;
14001;SDS011;7076;51.280;12.584;2022-08-30T08:04:03;5.75;;;3.85;;
14001;SDS011;7076;51.280;12.584;2022-08-30T08:09:06;6.28;;;3.42;;
14001;SDS011;7076;51.280;12.584;2022-08-30T08:14:10;4.65;;;3.53;;
14001;SDS011;7076;51.280;12.584;2022-08-30T08:19:13;3.80;;;3.38;;
14001;SDS011;7076;51.280;12.584;2022-08-30T08:24:16;7.53;;;4.25;;
14001;SDS011;7076;51.280;12.584;2022-08-30T08:29:20;7.07;;;3.58;;
14001;SDS011;7076;51.280;12.584;2022-08-30T08:34:24;6.47;;;3.92;;
14001;SDS011;7076;51.280;12.584;2022-08-30T08:39:27;11.00;;;3.80;;
14001;SDS011;7076;51.280;12.584;2022-08-30T08:44:34;7.68;;;3.30;;
14001;SDS011;7076;51.280;12.584;2022-08-30T08:49:45;3.90;;;2.78;;
14001;SDS011;7076;51.280;12.584;2022-08-30T08:54:50;6.88;;;3.22;;
14001;SDS011;7076;51.280;12.584;2022-08-30T08:59:56;5.22;;;2.65;;
14001;SDS011;7076;51.280;12.584;2022-08-30T09:05:00;4.50;;;2.90;;
14001;SDS011;7076;51.280;12.584;2022-08-30T09:10:04;5.78;;;2.45;;
14001;SDS011;7076;51.280;12.584;2022-08-30T09:15:11;5.07;;;2.58;;
14001;SDS011;7076;51.280;12.584;2022-08-30T09:20:25;4.10;;;2.70;;
14001;SDS011;7076;51.280;12.584;2022-08-30T09:25:31;3.75;;;1.80;;
14001;SDS011;7076;51.280;12.584;2022-08-30T09:30:40;4.40;;;1.85;;
14001;SDS011;7076;51.280;12.584;2022-08-30T09:36:17;2.58;;;2.08;;
14001;SDS011;7076;51.280;12.584;2022-08-30T09:41:26;3.97;;;2.13;;
14001;SDS011;7076;51.280;12.584;2022-08-30T09:46:32;1.98;;;1.75;;
14001;SDS011;7076;51.280;12.584;2022-08-30T09:51:43;3.03;;;1.85;;
14001;SDS011;7076;51.280;12.584;2022-08-30T09:56:51;3.85;;;2.00;;
14001;SDS011;7076;51.280;12.584;2022-08-30T10:02:01;2.78;;;1.90;;
14001;SDS011;7076;51.280;12.584;2022-08-30T10:07:08;3.05;;;2.08;;
14001;SDS011;7076;51.280;12.584;2022-08-30T10:12:14;3.38;;;2.00;;
14001;SDS011;7076;51.280;12.584;2022-08-30T10:17:24;4.40;;;1.58;;
14001;SDS011;7076;51.280;12.584;2022-08-30T10:22:38;3.03;;;2.03;;
14001;SDS011;7076;51.280;12.584;2022-08-30T10:27:48;3.55;;;2.20;;
14001;SDS011;7076;51.280;12.584;2022-08-30T10:32:57;3.13;;;2.00;;
14001;SDS011;7076;51.280;12.584;2022-08-30T10:38:02;2.90;;;2.08;;
14001;SDS011;7076;51.280;12.584;2022-08-30T10:43:07;2.67;;;1.92;;
14001;SDS011;7076;51.280;12.584;2022-08-30T10:48:19;3.90;;;2.20;;
14001;SDS011;7076;51.280;12.584;2022-08-30T10:53:27;3.30;;;2.10;;
14001;SDS011;7076;51.280;12.584;2022-08-30T10:58:32;3.08;;;2.00;;
14001;SDS011;7076;51.280;12.584;2022-08-30T11:03:57;3.80;;;1.80;;
14001;SDS011;7076;51.280;12.584;2022-08-30T11:09:21;2.50;;;2.08;;
14001;SDS011;7076;51.280;12.584;2022-08-30T11:14:37;2.17;;;1.98;;
14001;SDS011;7076;51.280;12.584;2022-08-30T11:19:44;3.75;;;2.10;;
14001;SDS011;7076;51.280;12.584;2022-08-30T11:25:07;2.10;;;1.55;;
14001;SDS011;7076;51.280;12.584;2022-08-30T11:35:54;4.40;;;1.70;;
14001;SDS011;7076;51.280;12.584;2022-08-30T11:41:05;1.83;;;1.33;;
14001;SDS011;7076;51.280;12.584;2022-08-30T11:46:15;2.15;;;1.60;;
14001;SDS011;7076;51.280;12.584;2022-08-30T11:51:35;2.28;;;1.70;;
14001;SDS011;7076;51.280;12.584;2022-08-30T11:57:16;2.33;;;1.50;;
14001;SDS011;7076;51.280;12.584;2022-08-30T12:02:45;3.05;;;1.70;;
14001;SDS011;7076;51.280;12.584;2022-08-30T12:07:56;1.38;;;1.27;;
14001;SDS011;7076;51.280;12.584;2022-08-30T12:13:00;1.90;;;1.35;;
14001;SDS011;7076;51.280;12.584;2022-08-30T12:18:03;2.85;;;1.67;;
14001;SDS011;7076;51.280;12.584;2022-08-30T12:23:29;5.40;;;2.20;;
14001;SDS011;7076;51.280;12.584;2022-08-30T12:28:35;2.30;;;1.85;;
14001;SDS011;7076;51.280;12.584;2022-08-30T12:33:43;2.17;;;1.83;;
14001;SDS011;7076;51.280;12.584;2022-08-30T12:39:00;3.28;;;1.85;;
14001;SDS011;7076;51.280;12.584;2022-08-30T12:44:07;2.45;;;2.00;;
14001;SDS011;7076;51.280;12.584;2022-08-30T12:49:12;3.33;;;2.22;;
14001;SDS011;7076;51.280;12.584;2022-08-30T12:54:18;2.20;;;2.00;;
14001;SDS011;7076;51.280;12.584;2022-08-30T13:04:54;3.92;;;2.20;;
14001;SDS011;7076;51.280;12.584;2022-08-30T13:10:02;3.10;;;1.85;;
14001;SDS011;7076;51.280;12.584;2022-08-30T13:15:17;3.75;;;2.63;;
14001;SDS011;7076;51.280;12.584;2022-08-30T13:20:23;3.22;;;2.75;;
14001;SDS011;7076;51.280;12.584;2022-08-30T13:25:28;3.78;;;2.78;;
14001;SDS011;7076;51.280;12.584;2022-08-30T13:30:33;2.42;;;2.20;;
14001;SDS011;7076;51.280;12.584;2022-08-30T13:35:36;3.78;;;2.55;;
14001;SDS011;7076;51.280;12.584;2022-08-30T13:40:40;2.70;;;2.50;;
14001;SDS011;7076;51.280;12.584;2022-08-30T13:45:43;2.60;;;2.40;;
14001;SDS011;7076;51.280;12.584;2022-08-30T13:50:46;2.60;;;2.40;;
14001;SDS011;7076;51.280;12.584;2022-08-30T13:55:50;4.88;;;2.50;;
14001;SDS011;7076;51.280;12.584;2022-08-30T14:00:53;3.30;;;2.67;;
14001;SDS011;7076;51.280;12.584;2022-08-30T14:05:57;2.67;;;2.47;;
14001;SDS011;7076;51.280;12.584;2022-08-30T14:11:22;2.28;;;2.15;;
14001;SDS011;7076;51.280;12.584;2022-08-30T14:16:25;2.90;;;2.45;;
14001;SDS011;7076;51.280;12.584;2022-08-30T14:21:28;2.67;;;2.47;;
14001;SDS011;7076;51.280;12.584;2022-08-30T14:26:33;3.67;;;2.83;;
14001;SDS011;7076;51.280;12.584;2022-08-30T14:31:38;2.30;;;2.10;;
14001;SDS011;7076;51.280;12.584;2022-08-30T14:36:42;3.45;;;2.40;;
14001;SDS011;7076;51.280;12.584;2022-08-30T14:41:48;2.67;;;2.33;;
14001;SDS011;7076;51.280;12.584;2022-08-30T14:46:52;2.63;;;2.42;;
14001;SDS011;7076;51.280;12.584;2022-08-30T14:51:55;2.08;;;1.95;;
14001;SDS011;7076;51.280;12.584;2022-08-30T14:57:00;3.35;;;2.28;;
14001;SDS011;7076;51.280;12.584;2022-08-30T15:02:04;3.15;;;2.28;;
14001;SDS011;7076;51.280;12.584;2022-08-30T15:07:06;2.58;;;2.20;;
14001;SDS011;7076;51.280;12.584;2022-08-30T15:12:15;2.47;;;2.20;;
14001;SDS011;7076;51.280;12.584;2022-08-30T15:17:18;2.92;;;2.30;;
14001;SDS011;7076;51.280;12.584;2022-08-30T15:22:21;2.85;;;2.17;;
14001;SDS011;7076;51.280;12.584;2022-08-30T15:27:26;3.08;;;2.03;;
14001;SDS011;7076;51.280;12.584;2022-08-30T15:32:29;2.65;;;2.15;;
14001;SDS011;7076;51.280;12.584;2022-08-30T15:37:32;2.28;;;2.00;;
14001;SDS011;7076;51.280;12.584;2022-08-30T15:42:36;1.98;;;1.75;;
14001;SDS011;7076;51.280;12.584;2022-08-30T15:47:39;2.50;;;1.90;;
14001;SDS011;7076;51.280;12.584;2022-08-30T15:52:42;3.13;;;1.95;;
14001;SDS011;7076;51.280;12.584;2022-08-30T15:57:46;2.20;;;2.00;;
14001;SDS011;7076;51.280;12.584;2022-08-30T16:02:49;2.83;;;1.90;;
14001;SDS011;7076;51.280;12.584;2022-08-30T16:07:53;2.83;;;2.20;;
14001;SDS011;7076;51.280;12.584;2022-08-30T16:12:57;3.45;;;2.05;;
14001;SDS011;7076;51.280;12.584;2022-08-30T16:18:03;2.85;;;1.98;;
14001;SDS011;7076;51.280;12.584;2022-08-30T16:23:06;3.92;;;2.13;;
14001;SDS011;7076;51.280;12.584;2022-08-30T16:28:10;1.65;;;1.55;;
14001;SDS011;7076;51.280;12.584;2022-08-30T16:33:12;2.50;;;1.73;;
14001;SDS011;7076;51.280;12.584;2022-08-30T16:38:15;1.90;;;1.80;;
14001;SDS011;7076;51.280;12.584;2022-08-30T16:43:20;2.22;;;1.75;;
14001;SDS011;7076;51.280;12.584;2022-08-30T16:48:24;1.70;;;1.55;;
14001;SDS011;7076;51.280;12.584;2022-08-30T16:53:27;1.40;;;1.30;;
14001;SDS011;7076;51.280;12.584;2022-08-30T16:58:31;2.67;;;1.48;;
14001;SDS011;7076;51.280;12.584;2022-08-30T17:03:34;1.80;;;1.42;;
14001;SDS011;7076;51.280;12.584;2022-08-30T17:08:37;2.45;;;1.45;;
14001;SDS011;7076;51.280;12.584;2022-08-30T17:13:41;1.50;;;1.40;;
14001;SDS011;7076;51.280;12.584;2022-08-30T17:18:44;1.80;;;1.70;;
14001;SDS011;7076;51.280;12.584;2022-08-30T17:23:47;1.70;;;1.60;;
14001;SDS011;7076;51.280;12.584;2022-08-30T17:28:51;1.50;;;1.40;;
14001;SDS011;7076;51.280;12.584;2022-08-30T17:33:56;1.60;;;1.50;;
14001;SDS011;7076;51.280;12.584;2022-08-30T17:39:04;3.08;;;1.33;;
14001;SDS011;7076;51.280;12.584;2022-08-30T17:44:13;1.40;;;1.30;;
14001;SDS011;7076;51.280;12.584;2022-08-30T17:49:15;1.70;;;1.42;;
14001;SDS011;7076;51.280;12.584;2022-08-30T17:54:18;1.38;;;1.27;;
14001;SDS011;7076;51.280;12.584;2022-08-30T17:59:26;2.10;;;1.48;;
14001;SDS011;7076;51.280;12.584;2022-08-30T18:04:49;1.98;;;1.20;;
14001;SDS011;7076;51.280;12.584;2022-08-30T18:09:53;2.60;;;1.60;;
14001;SDS011;7076;51.280;12.584;2022-08-30T18:14:58;1.58;;;1.48;;
14001;SDS011;7076;51.280;12.584;2022-08-30T18:20:01;1.55;;;1.45;;
14001;SDS011;7076;51.280;12.584;2022-08-30T18:25:08;1.85;;;1.50;;
14001;SDS011;7076;51.280;12.584;2022-08-30T18:30:13;1.60;;;1.42;;
14001;SDS011;7076;51.280;12.584;2022-08-30T18:35:17;3.90;;;1.60;;
14001;SDS011;7076;51.280;12.584;2022-08-30T18:40:20;2.33;;;1.65;;
14001;SDS011;7076;51.280;12.584;2022-08-30T18:45:24;2.75;;;1.90;;
14001;SDS011;7076;51.280;12.584;2022-08-30T18:50:27;4.55;;;1.80;;
14001;SDS011;7076;51.280;12.584;2022-08-30T18:55:30;2.38;;;1.85;;
14001;SDS011;7076;51.280;12.584;2022-08-30T19:00:35;1.77;;;1.67;;
14001;SDS011;7076;51.280;12.584;2022-08-30T19:05:38;2.45;;;1.90;;
14001;SDS011;7076;51.280;12.584;2022-08-30T19:10:42;2.28;;;2.00;;
14001;SDS011;7076;51.280;12.584;2022-08-30T19:15:46;2.13;;;1.85;;
14001;SDS011;7076;51.280;12.584;2022-08-30T19:20:51;2.20;;;2.00;;
14001;SDS011;7076;51.280;12.584;2022-08-30T19:25:54;2.95;;;2.00;;
14001;SDS011;7076;51.280;12.584;2022-08-30T19:30:59;2.25;;;1.77;;
14001;SDS011;7076;51.280;12.584;2022-08-30T19:36:03;2.00;;;1.88;;
14001;SDS011;7076;51.280;12.584;2022-08-30T19:41:06;1.88;;;1.60;;
14001;SDS011;7076;51.280;12.584;2022-08-30T19:46:13;2.00;;;1.75;;
14001;SDS011;7076;51.280;12.584;2022-08-30T19:51:17;4.20;;;2.00;;
14001;SDS011;7076;51.280;12.584;2022-08-30T19:56:22;2.10;;;1.90;;
14001;SDS011;7076;51.280;12.584;2022-08-30T20:01:26;3.28;;;1.60;;
14001;SDS011;7076;51.280;12.584;2022-08-30T20:06:34;1.80;;;1.60;;
14001;SDS011;7076;51.280;12.584;2022-08-30T20:11:37;2.47;;;1.92;;
14001;SDS011;7076;51.280;12.584;2022-08-30T20:16:44;4.85;;;2.00;;
14001;SDS011;7076;51.280;12.584;2022-08-30T20:21:47;2.17;;;1.88;;
14001;SDS011;7076;51.280;12.584;2022-08-30T20:26:51;2.25;;;2.05;;
14001;SDS011;7076;51.280;12.584;2022-08-30T20:31:55;2.42;;;1.90;;
14001;SDS011;7076;51.280;12.584;2022-08-30T20:36:58;3.22;;;2.03;;
14001;SDS011;7076;51.280;12.584;2022-08-30T20:42:01;7.43;;;5.60;;
14001;SDS011;7076;51.280;12.584;2022-08-30T20:47:05;2.22;;;2.03;;
14001;SDS011;7076;51.280;12.584;2022-08-30T20:52:08;3.50;;;2.30;;
14001;SDS011;7076;51.280;12.584;2022-08-30T20:57:11;2.60;;;2.22;;
14001;SDS011;7076;51.280;12.584;2022-08-30T21:02:16;2.20;;;2.00;;
14001;SDS011;7076;51.280;12.584;2022-08-30T21:07:19;2.83;;;2.20;;
14001;SDS011;7076;51.280;12.584;2022-08-30T21:12:22;3.60;;;2.42;;
14001;SDS011;7076;51.280;12.584;2022-08-30T21:17:26;3.03;;;2.65;;
14001;SDS011;7076;51.280;12.584;2022-08-30T21:22:30;2.88;;;2.60;;
14001;SDS011;7076;51.280;12.584;2022-08-30T21:27:33;6.15;;;3.10;;
14001;SDS011;7076;51.280;12.584;2022-08-30T21:32:37;3.47;;;3.00;;
14001;SDS011;7076;51.280;12.584;2022-08-30T21:37:40;2.97;;;2.67;;
14001;SDS011;7076;51.280;12.584;2022-08-30T21:42:45;4.72;;;3.40;;
14001;SDS011;7076;51.280;12.584;2022-08-30T21:47:49;3.15;;;2.85;;
14001;SDS011;7076;51.280;12.584;2022-08-30T21:52:52;4.72;;;2.92;;
14001;SDS011;7076;51.280;12.584;2022-08-30T21:57:55;3.35;;;2.83;;
14001;SDS011;7076;51.280;12.584;2022-08-30T22:02:59;4.68;;;2.55;;
14001;SDS011;7076;51.280;12.584;2022-08-30T22:08:02;3.60;;;3.08;;
14001;SDS011;7076;51.280;12.584;2022-08-30T22:13:05;3.55;;;2.58;;
14001;SDS011;7076;51.280;12.584;2022-08-30T22:18:12;2.72;;;2.50;;
14001;SDS011;7076;51.280;12.584;2022-08-30T22:23:18;3.25;;;2.00;;
14001;SDS011;7076;51.280;12.584;2022-08-30T22:28:23;4.15;;;2.38;;
14001;SDS011;7076;51.280;12.584;2022-08-30T22:33:27;2.65;;;2.28;;
14001;SDS011;7076;51.280;12.584;2022-08-30T22:38:30;1.92;;;1.73;;
14001;SDS011;7076;51.280;12.584;2022-08-30T22:43:32;1.95;;;1.73;;
14001;SDS011;7076;51.280;12.584;2022-08-30T22:48:38;2.40;;;1.77;;
14001;SDS011;7076;51.280;12.584;2022-08-30T22:53:42;2.03;;;1.83;;
14001;SDS011;7076;51.280;12.584;2022-08-30T22:58:46;2.53;;;1.67;;
14001;SDS011;7076;51.280;12.584;2022-08-30T23:03:50;1.88;;;1.77;;
14001;SDS011;7076;51.280;12.584;2022-08-30T23:08:54;1.73;;;1.63;;
14001;SDS011;7076;51.280;12.584;2022-08-30T23:13:57;1.90;;;1.70;;
14001;SDS011;7076;51.280;12.584;2022-08-30T23:19:01;2.35;;;1.48;;
14001;SDS011;7076;51.280;12.584;2022-08-30T23:24:04;2.80;;;1.80;;
14001;SDS011;7076;51.280;12.584;2022-08-30T23:29:24;1.52;;;1.42;;
14001;SDS011;7076;51.280;12.584;2022-08-30T23:34:46;2.97;;;1.33;;
14001;SDS011;7076;51.280;12.584;2022-08-30T23:40:07;1.55;;;1.15;;
14001;SDS011;7076;51.280;12.584;2022-08-30T23:45:28;1.35;;;1.25;;
14001;SDS011;7076;51.280;12.584;2022-08-30T23:50:50;1.45;;;1.25;;
14001;SDS011;7076;51.280;12.584;2022-08-30T23:56:14;1.45;;;1.27;;
